Time;durP1;ratioP1;P1;durP2;ratioP2;P2;SDS_P1;SDS_P2;PMS_P1;PMS_P2;Temp;Humidity;BMP_temperature;BMP_pressure;BME280_temperature;BME280_humidity;BME280_pressure;Samples;Min_cycle;Max_cycle;Signal;HPM_P1;HPM_P2
2023/08/15 00:02:16;;;;;;;8.93;8.63;;;22.30;99.90;;;;;;4998179;28;20244;-79
2023/08/15 00:04:43;;;;;;;8.57;8.38;;;22.20;99.90;;;;;;4997843;28;20237;-79
2023/08/15 00:07:10;;;;;;;8.60;8.40;;;22.20;99.90;;;;;;4998571;28;20236;-79
2023/08/15 00:09:37;;;;;;;8.60;8.40;;;22.10;99.90;;;;;;4998555;28;20244;-79
2023/08/15 00:12:05;;;;;;;8.50;8.30;;;22.10;99.90;;;;;;4997591;28;20232;-79
2023/08/15 00:14:32;;;;;;;8.65;8.45;;;22.10;99.90;;;;;;4997283;28;20236;-79
2023/08/15 00:16:59;;;;;;;8.88;8.60;;;22.10;99.90;;;;;;4997460;28;20239;-79
2023/08/15 00:19:27;;;;;;;8.80;8.52;;;22.10;99.90;;;;;;4997727;28;20271;-79
2023/08/15 00:21:54;;;;;;;8.90;8.60;;;22.10;99.90;;;;;;4997105;28;20241;-79
2023/08/15 00:24:21;;;;;;;9.00;8.70;;;22.10;99.90;;;;;;4997549;28;20247;-79
2023/08/15 00:26:48;;;;;;;8.90;8.60;;;22.10;99.90;;;;;;4997581;28;20249;-79
2023/08/15 00:29:15;;;;;;;8.82;8.52;;;22.10;99.90;;;;;;4997743;28;20221;-79
2023/08/15 00:31:42;;;;;;;8.70;8.50;;;22.00;99.90;;;;;;4997381;28;20235;-79
2023/08/15 00:34:09;;;;;;;8.77;8.52;;;22.00;99.90;;;;;;4997495;28;20239;-79
2023/08/15 00:36:38;;;;;;;8.80;8.50;;;22.00;99.90;;;;;;4997562;28;20224;-79
2023/08/15 00:39:05;;;;;;;8.90;8.60;;;22.00;99.90;;;;;;4997639;28;20240;-80
2023/08/15 00:41:32;;;;;;;8.88;8.57;;;21.90;99.90;;;;;;4996850;28;20252;-79
2023/08/15 00:43:59;;;;;;;8.90;8.60;;;22.00;99.90;;;;;;4996953;28;20247;-79
2023/08/15 00:46:27;;;;;;;8.80;8.50;;;21.90;99.90;;;;;;4997643;28;20237;-78
2023/08/15 00:48:56;;;;;;;8.63;8.43;;;21.90;99.90;;;;;;4998511;28;20240;-77
2023/08/15 00:51:23;;;;;;;8.75;8.50;;;21.90;99.90;;;;;;4997257;28;20236;-79
2023/08/15 00:53:52;;;;;;;8.70;8.50;;;21.90;99.90;;;;;;4980814;28;20241;-78
2023/08/15 00:56:21;;;;;;;8.70;8.50;;;21.90;99.90;;;;;;4981342;28;20230;-79
2023/08/15 00:58:48;;;;;;;8.75;8.48;;;21.90;99.90;;;;;;4980914;28;20236;-79
2023/08/15 01:01:17;;;;;;;8.93;8.63;;;21.80;99.90;;;;;;4981466;28;20234;-79
2023/08/15 01:03:46;;;;;;;8.90;8.60;;;21.80;99.90;;;;;;4987286;28;20247;-79
2023/08/15 01:06:13;;;;;;;8.90;8.60;;;21.80;99.90;;;;;;5004210;28;20225;-79
2023/08/15 01:08:41;;;;;;;8.82;8.52;;;21.80;99.90;;;;;;5008574;28;20235;-79
2023/08/15 01:11:09;;;;;;;9.43;9.13;;;21.80;99.90;;;;;;5009097;28;20264;-78
2023/08/15 01:13:45;;;;;;;9.00;8.70;;;21.80;99.90;;;;;;4996506;28;20250;-79
2023/08/15 01:16:15;;;;;;;8.98;8.68;;;21.80;99.90;;;;;;4986868;28;20210;-79
2023/08/15 01:18:48;;;;;;;8.90;8.60;;;21.70;99.90;;;;;;4989241;28;20320;-79
2023/08/15 01:21:22;;;;;;;9.00;8.70;;;21.70;99.90;;;;;;4998938;28;20239;-79
2023/08/15 01:23:52;;;;;;;8.70;8.50;;;21.70;99.90;;;;;;4982616;28;20265;-79
2023/08/15 01:26:19;;;;;;;8.95;8.65;;;21.60;99.90;;;;;;4982774;28;20233;-79
2023/08/15 01:28:46;;;;;;;8.85;8.55;;;21.60;99.90;;;;;;4982057;28;20229;-79
2023/08/15 01:31:19;;;;;;;8.70;8.50;;;21.60;99.90;;;;;;4982288;28;20236;-79
2023/08/15 01:34:00;;;;;;;9.00;8.70;;;21.50;99.90;;;;;;4989441;28;20237;-79
2023/08/15 01:36:33;;;;;;;9.00;8.70;;;21.50;99.90;;;;;;5001918;28;20331;-79
2023/08/15 01:39:06;;;;;;;9.20;8.90;;;21.50;99.90;;;;;;5001800;28;20229;-79
2023/08/15 01:41:37;;;;;;;9.05;8.75;;;21.40;99.90;;;;;;5001934;28;20232;-80
2023/08/15 01:44:05;;;;;;;9.00;8.70;;;21.40;99.90;;;;;;5002958;28;20243;-79
2023/08/15 01:46:33;;;;;;;9.00;8.70;;;21.30;99.90;;;;;;5004983;28;20232;-79
2023/08/15 01:49:00;;;;;;;8.90;8.60;;;21.30;99.90;;;;;;5005892;28;20233;-79
2023/08/15 01:51:27;;;;;;;8.90;8.60;;;21.30;99.90;;;;;;5003926;28;20237;-79
2023/08/15 01:53:54;;;;;;;8.85;8.55;;;21.30;99.90;;;;;;5003199;28;20255;-79
2023/08/15 01:56:23;;;;;;;9.07;8.77;;;21.20;99.90;;;;;;5002825;28;20739;-79
2023/08/15 01:58:50;;;;;;;9.00;8.70;;;21.20;99.90;;;;;;5002517;28;20235;-79
2023/08/15 02:01:17;;;;;;;8.93;8.63;;;21.20;99.90;;;;;;4993249;28;20426;-79
2023/08/15 02:03:44;;;;;;;9.10;8.80;;;21.20;99.90;;;;;;4981950;28;20241;-79
2023/08/15 02:06:11;;;;;;;8.90;8.60;;;21.20;99.90;;;;;;4982756;28;20222;-80
2023/08/15 02:08:38;;;;;;;9.10;8.80;;;21.20;99.90;;;;;;4983054;28;20251;-80
2023/08/15 02:11:05;;;;;;;8.88;8.57;;;21.20;99.90;;;;;;4982367;28;20237;-79
2023/08/15 02:13:33;;;;;;;9.00;8.70;;;21.20;99.90;;;;;;4981972;28;20248;-79
2023/08/15 02:16:00;;;;;;;8.90;8.60;;;21.20;99.90;;;;;;4982536;28;20226;-79
2023/08/15 02:18:28;;;;;;;8.98;8.68;;;21.10;99.90;;;;;;4983455;28;20268;-80
2023/08/15 02:20:55;;;;;;;8.90;8.60;;;21.10;99.90;;;;;;4982860;28;20229;-80
2023/08/15 02:23:22;;;;;;;8.60;8.40;;;21.00;99.90;;;;;;4983422;28;20308;-79
2023/08/15 02:25:49;;;;;;;8.80;8.50;;;21.00;99.90;;;;;;4985749;28;20233;-79
2023/08/15 02:28:16;;;;;;;8.45;8.25;;;21.00;99.90;;;;;;4989400;28;20321;-79
2023/08/15 02:30:45;;;;;;;8.43;8.23;;;20.90;99.90;;;;;;4988919;28;20229;-79
2023/08/15 02:33:12;;;;;;;8.70;8.50;;;20.90;99.90;;;;;;4988522;28;20245;-79
2023/08/15 02:35:43;;;;;;;9.02;8.73;;;20.90;99.90;;;;;;4988869;28;20249;-80
2023/08/15 02:38:10;;;;;;;8.40;8.20;;;20.90;99.90;;;;;;4990316;28;20253;-79
2023/08/15 02:40:37;;;;;;;8.48;8.27;;;20.80;99.90;;;;;;4989855;28;20241;-79
2023/08/15 02:43:04;;;;;;;8.35;8.15;;;20.80;99.90;;;;;;4981498;28;20259;-79
2023/08/15 02:45:31;;;;;;;8.50;8.30;;;20.80;99.90;;;;;;4981917;28;20238;-79
2023/08/15 02:48:00;;;;;;;8.30;8.10;;;20.70;99.90;;;;;;4981654;28;20228;-78
2023/08/15 02:50:27;;;;;;;8.32;8.13;;;20.70;99.90;;;;;;4992751;28;20233;-78
2023/08/15 02:52:54;;;;;;;8.25;8.05;;;20.60;99.90;;;;;;4999815;28;20240;-78
2023/08/15 02:55:21;;;;;;;8.23;8.02;;;20.60;99.90;;;;;;5000053;28;20320;-79
2023/08/15 02:57:49;;;;;;;8.40;8.20;;;20.60;99.90;;;;;;4999934;28;20233;-79
2023/08/15 03:00:16;;;;;;;8.40;8.20;;;20.50;99.90;;;;;;4999457;28;20268;-79
2023/08/15 03:02:43;;;;;;;8.40;8.20;;;20.50;99.90;;;;;;4998888;28;20240;-78
2023/08/15 03:05:12;;;;;;;8.52;8.32;;;20.40;99.90;;;;;;5000938;28;20232;-78
2023/08/15 03:07:38;;;;;;;8.60;8.40;;;20.30;99.90;;;;;;5000161;28;20233;-79
2023/08/15 03:10:06;;;;;;;8.40;8.20;;;20.20;99.90;;;;;;5003200;28;20228;-78
2023/08/15 03:12:33;;;;;;;8.52;8.32;;;20.20;99.90;;;;;;5005187;28;20288;-79
2023/08/15 03:15:01;;;;;;;8.40;8.20;;;20.20;99.90;;;;;;5004357;28;20243;-79
2023/08/15 03:17:28;;;;;;;8.57;8.38;;;20.20;99.90;;;;;;4999379;28;20237;-78
2023/08/15 03:19:55;;;;;;;8.38;8.18;;;20.20;99.90;;;;;;4998882;28;20237;-79
2023/08/15 03:22:23;;;;;;;8.60;8.40;;;20.20;99.90;;;;;;4987416;28;20267;-79
2023/08/15 03:24:50;;;;;;;8.75;8.45;;;20.20;99.90;;;;;;4980063;28;20244;-79
2023/08/15 03:27:17;;;;;;;7.95;7.75;;;20.20;99.90;;;;;;4978590;28;20246;-78
2023/08/15 03:29:44;;;;;;;8.10;7.90;;;20.20;99.90;;;;;;4978547;28;20292;-79
2023/08/15 03:32:11;;;;;;;8.38;8.18;;;20.10;99.90;;;;;;4978516;28;20243;-79
2023/08/15 03:34:38;;;;;;;8.63;8.43;;;20.10;99.90;;;;;;4980787;28;20243;-79
2023/08/15 03:37:05;;;;;;;8.50;8.30;;;20.10;99.90;;;;;;4978727;28;20334;-79
2023/08/15 03:39:34;;;;;;;8.43;8.23;;;20.10;99.90;;;;;;4978002;28;20241;-79
2023/08/15 03:42:01;;;;;;;8.60;8.40;;;20.10;99.90;;;;;;4977788;28;20358;-79
2023/08/15 03:44:28;;;;;;;8.70;8.50;;;20.10;99.90;;;;;;4977468;28;20266;-79
2023/08/15 03:46:55;;;;;;;8.65;8.45;;;20.00;99.90;;;;;;4978291;28;20236;-77
2023/08/15 03:49:22;;;;;;;8.77;8.52;;;20.00;99.90;;;;;;4984263;28;20225;-83
2023/08/15 03:51:49;;;;;;;8.60;8.40;;;20.00;99.90;;;;;;4983984;28;20238;-81
2023/08/15 03:54:16;;;;;;;8.65;8.45;;;20.00;99.90;;;;;;4980798;28;20226;-82
2023/08/15 03:56:44;;;;;;;8.90;8.60;;;20.10;99.90;;;;;;4981451;28;20249;-82
2023/08/15 03:59:11;;;;;;;8.75;8.52;;;20.10;99.90;;;;;;4984048;28;20245;-80
2023/08/15 04:01:38;;;;;;;8.75;8.52;;;20.10;99.90;;;;;;5001207;28;20243;-82
2023/08/15 04:04:06;;;;;;;8.95;8.65;;;20.10;99.90;;;;;;5001183;28;20232;-83
2023/08/15 04:06:34;;;;;;;8.93;8.63;;;20.20;99.90;;;;;;5001836;28;20236;-82
2023/08/15 04:09:01;;;;;;;8.70;8.50;;;20.20;99.90;;;;;;5000523;28;20237;-82
2023/08/15 04:11:28;;;;;;;8.70;8.50;;;20.20;99.90;;;;;;4999518;28;20237;-81
2023/08/15 04:13:56;;;;;;;8.68;8.48;;;20.20;99.90;;;;;;4999838;28;20287;-81
2023/08/15 04:16:23;;;;;;;8.10;7.90;;;20.20;99.90;;;;;;4999582;28;20234;-84
2023/08/15 04:18:50;;;;;;;8.70;8.50;;;20.20;99.90;;;;;;4999361;28;20297;-82
2023/08/15 04:21:18;;;;;;;8.85;8.63;;;20.20;99.90;;;;;;4999969;28;20231;-81
2023/08/15 04:23:45;;;;;;;8.73;8.52;;;20.20;99.90;;;;;;4999525;28;20304;-83
2023/08/15 04:26:13;;;;;;;8.10;7.90;;;20.20;99.90;;;;;;4998600;28;20220;-81
2023/08/15 04:28:40;;;;;;;8.20;8.00;;;20.30;99.90;;;;;;5000090;28;20233;-82
2023/08/15 04:31:08;;;;;;;8.60;8.40;;;20.30;99.90;;;;;;5000052;28;20351;-82
2023/08/15 04:33:35;;;;;;;8.60;8.40;;;20.30;99.90;;;;;;5004027;28;20243;-81
2023/08/15 04:36:02;;;;;;;8.75;8.55;;;20.30;99.90;;;;;;5002305;28;20320;-81
2023/08/15 04:38:29;;;;;;;8.50;8.30;;;20.30;99.90;;;;;;5000784;28;20233;-81
2023/08/15 04:40:56;;;;;;;8.50;8.30;;;20.40;99.90;;;;;;4998943;28;20263;-81
2023/08/15 04:43:23;;;;;;;8.50;8.30;;;20.40;99.90;;;;;;4998103;28;20327;-81
2023/08/15 04:45:50;;;;;;;8.60;8.40;;;20.50;99.90;;;;;;4999434;28;20308;-82
2023/08/15 04:48:19;;;;;;;8.50;8.30;;;20.50;99.90;;;;;;4999433;28;20236;-82
2023/08/15 04:50:46;;;;;;;8.50;8.30;;;20.50;99.90;;;;;;4999291;28;20252;-82
2023/08/15 04:53:13;;;;;;;8.70;8.50;;;20.50;99.90;;;;;;4998561;28;20251;-83
2023/08/15 04:55:40;;;;;;;8.70;8.50;;;20.60;99.90;;;;;;5000411;28;20251;-83
2023/08/15 04:58:09;;;;;;;8.70;8.50;;;20.60;99.90;;;;;;4999945;28;20260;-82
2023/08/15 05:00:36;;;;;;;8.40;8.20;;;20.70;99.90;;;;;;5000190;28;20239;-83
2023/08/15 05:03:04;;;;;;;8.50;8.30;;;20.70;99.90;;;;;;5000035;28;20240;-83
2023/08/15 05:05:33;;;;;;;8.70;8.50;;;20.70;99.90;;;;;;5000091;28;20221;-83
2023/08/15 05:08:00;;;;;;;8.65;8.45;;;20.70;99.90;;;;;;5000659;28;20238;-84
2023/08/15 05:10:27;;;;;;;8.32;8.13;;;20.70;99.90;;;;;;5000413;28;20239;-82
2023/08/15 05:12:56;;;;;;;8.35;8.15;;;20.80;99.90;;;;;;4999676;28;20243;-81
2023/08/15 05:15:23;;;;;;;8.25;8.05;;;20.80;99.90;;;;;;4999720;28;20225;-82
2023/08/15 05:17:50;;;;;;;8.35;8.15;;;20.80;99.90;;;;;;4999372;28;20317;-81
2023/08/15 05:20:17;;;;;;;8.50;8.30;;;20.80;99.90;;;;;;4998414;28;20232;-81
2023/08/15 05:22:46;;;;;;;8.40;8.20;;;20.80;99.90;;;;;;4999586;28;20228;-81
2023/08/15 05:25:13;;;;;;;8.63;8.43;;;20.90;99.90;;;;;;5035040;23;20232;-79
2023/08/15 05:27:40;;;;;;;8.57;8.38;;;20.90;99.90;;;;;;5051510;28;20230;-80
2023/08/15 05:30:09;;;;;;;8.40;8.20;;;21.00;99.90;;;;;;5058385;28;20227;-79
2023/08/15 05:32:36;;;;;;;8.35;8.15;;;21.10;99.90;;;;;;5058202;28;20323;-79
2023/08/15 05:35:03;;;;;;;8.23;8.02;;;21.10;99.90;;;;;;5032300;28;20229;-79
2023/08/15 05:37:31;;;;;;;8.20;8.00;;;21.20;99.90;;;;;;5030006;28;20237;-79
2023/08/15 05:39:59;;;;;;;8.30;8.10;;;21.20;99.90;;;;;;5025971;28;20236;-79
2023/08/15 05:42:26;;;;;;;8.40;8.20;;;21.20;99.90;;;;;;5018468;28;20302;-79
2023/08/15 05:44:54;;;;;;;8.50;8.30;;;21.10;99.90;;;;;;5023473;28;20224;-79
2023/08/15 05:47:21;;;;;;;8.52;8.32;;;21.10;99.90;;;;;;5023523;28;20265;-80
2023/08/15 05:49:52;;;;;;;8.75;8.52;;;21.10;99.90;;;;;;5022711;28;20267;-82
2023/08/15 05:52:18;;;;;;;8.63;8.43;;;21.10;99.90;;;;;;5028559;28;20227;-79
2023/08/15 05:54:46;;;;;;;8.50;8.30;;;21.20;99.90;;;;;;5027904;28;20224;-81
2023/08/15 05:57:14;;;;;;;8.50;8.30;;;21.30;99.90;;;;;;5034988;28;20259;-80
2023/08/15 05:59:41;;;;;;;8.23;8.02;;;21.40;99.90;;;;;;5025039;28;20243;-80
2023/08/15 06:02:09;;;;;;;8.45;8.25;;;21.50;99.90;;;;;;5023894;28;20295;-81
2023/08/15 06:04:36;;;;;;;8.43;8.23;;;21.50;99.90;;;;;;5026920;28;20228;-81
2023/08/15 06:07:03;;;;;;;9.20;8.90;;;21.60;99.90;;;;;;5025015;28;20224;-82
2023/08/15 06:09:31;;;;;;;8.80;8.60;;;21.70;99.90;;;;;;5024877;28;20266;-82
2023/08/15 06:11:58;;;;;;;8.50;8.30;;;21.90;99.90;;;;;;5030713;28;20226;-82
2023/08/15 06:14:27;;;;;;;8.80;8.60;;;22.00;99.90;;;;;;5034913;28;20314;-82
2023/08/15 06:16:54;;;;;;;8.77;8.57;;;22.10;99.90;;;;;;5042677;28;20227;-82
2023/08/15 06:19:21;;;;;;;8.40;8.20;;;22.20;99.90;;;;;;5042593;28;20227;-81
2023/08/15 06:21:48;;;;;;;9.00;8.70;;;22.30;99.90;;;;;;5041723;28;20254;-82
2023/08/15 06:24:16;;;;;;;9.40;9.10;;;22.40;99.90;;;;;;5042870;28;20301;-82
2023/08/15 06:26:43;;;;;;;9.70;9.40;;;22.60;99.90;;;;;;5042455;28;20239;-82
2023/08/15 06:29:10;;;;;;;9.65;9.35;;;22.70;99.90;;;;;;5041983;28;20235;-82
2023/08/15 06:31:38;;;;;;;10.00;9.70;;;22.90;99.90;;;;;;5042329;28;20292;-82
2023/08/15 06:34:05;;;;;;;9.98;9.68;;;23.00;99.90;;;;;;5042252;28;20238;-81
2023/08/15 06:36:33;;;;;;;10.10;9.80;;;23.20;99.90;;;;;;5042109;28;20250;-82
2023/08/15 06:39:00;;;;;;;10.35;10.05;;;23.30;99.90;;;;;;5042399;28;20239;-80
2023/08/15 06:41:27;;;;;;;10.50;10.20;;;23.50;99.90;;;;;;5041647;28;20250;-81
2023/08/15 06:43:54;;;;;;;10.70;10.40;;;23.70;99.90;;;;;;5041845;28;20239;-83
2023/08/15 06:46:21;;;;;;;10.70;10.40;;;23.90;99.90;;;;;;5042596;28;20339;-80
2023/08/15 06:48:50;;;;;;;10.25;9.95;;;24.10;99.90;;;;;;5042950;28;20315;-79
2023/08/15 06:51:17;;;;;;;10.65;10.35;;;24.30;99.90;;;;;;5054192;28;20327;-79
2023/08/15 06:53:45;;;;;;;10.50;10.20;;;24.40;99.90;;;;;;5041391;28;20223;-80
2023/08/15 06:56:14;;;;;;;10.48;10.18;;;24.50;99.90;;;;;;5041919;28;20239;-81
2023/08/15 06:58:41;;;;;;;10.57;10.27;;;24.50;99.90;;;;;;5045618;28;20241;-81
2023/08/15 07:01:08;;;;;;;10.70;10.40;;;24.60;99.90;;;;;;5043697;28;20220;-89
2023/08/15 07:04:16;;;;;;;;;;;;;;;;;;;;;
2023/08/15 07:06:52;;;;;;;10.65;10.35;;;25.00;99.90;;;;;;5033944;28;20239;-94
2023/08/15 07:09:19;;;;;;;10.52;10.23;;;25.20;99.90;;;;;;5034692;28;20234;-91
2023/08/15 07:11:58;;;;;;;10.70;10.40;;;25.30;99.90;;;;;;5028516;28;20291;-92
2023/08/15 07:14:36;;;;;;;10.80;10.50;;;25.40;99.90;;;;;;5030520;28;20263;-94
2023/08/15 07:17:12;;;;;;;10.77;10.48;;;25.30;99.90;;;;;;5033445;28;20229;-93
2023/08/15 07:19:39;;;;;;;10.68;10.38;;;25.30;99.90;;;;;;5029336;28;20227;-92
2023/08/15 07:22:10;;;;;;;10.70;10.40;;;25.30;99.90;;;;;;5011540;28;20233;-92
2023/08/15 07:24:37;;;;;;;10.80;10.50;;;25.30;99.90;;;;;;5003946;28;20256;-91
2023/08/15 07:27:05;;;;;;;10.95;10.65;;;25.30;99.90;;;;;;5004108;28;20288;-91
2023/08/15 07:29:37;;;;;;;11.00;10.70;;;25.40;99.90;;;;;;5003706;28;20240;-91
2023/08/15 07:32:08;;;;;;;10.75;10.45;;;25.50;99.90;;;;;;5004768;28;20233;-91
2023/08/15 07:34:35;;;;;;;10.88;10.57;;;25.60;99.90;;;;;;5015553;28;20209;-90
2023/08/15 07:37:05;;;;;;;10.70;10.40;;;25.70;99.90;;;;;;5019991;28;20271;-90
2023/08/15 07:39:35;;;;;;;10.80;10.50;;;25.80;99.90;;;;;;5018642;28;20232;-90
2023/08/15 07:42:13;;;;;;;10.70;10.40;;;25.80;99.90;;;;;;5012193;28;20245;-91
2023/08/15 07:44:41;;;;;;;10.75;10.45;;;25.90;99.90;;;;;;5004941;28;20217;-92
2023/08/15 07:47:10;;;;;;;10.60;10.30;;;26.10;99.90;;;;;;5003734;28;20236;-91
2023/08/15 07:49:40;;;;;;;11.20;10.90;;;26.30;99.90;;;;;;5004452;28;20243;-92
2023/08/15 07:52:08;;;;;;;11.43;11.02;;;26.40;99.90;;;;;;5004442;28;20267;-92
2023/08/15 07:54:43;;;;;;;11.07;10.77;;;26.60;99.90;;;;;;5004297;28;20229;-92
2023/08/15 07:57:11;;;;;;;11.10;10.80;;;26.80;99.90;;;;;;5004162;28;20319;-91
2023/08/15 07:59:41;;;;;;;11.50;11.10;;;26.90;99.90;;;;;;5002126;28;20247;-92
2023/08/15 08:02:08;;;;;;;11.50;11.10;;;27.10;99.90;;;;;;5024346;28;20246;-91
2023/08/15 08:04:36;;;;;;;11.48;11.07;;;27.20;99.90;;;;;;5045385;28;20224;-92
2023/08/15 08:07:03;;;;;;;11.55;11.15;;;27.30;99.90;;;;;;5051518;28;20227;-91
2023/08/15 08:09:39;;;;;;;11.57;11.18;;;27.40;99.90;;;;;;5045829;28;20313;-92
2023/08/15 08:12:11;;;;;;;11.15;10.82;;;27.60;99.90;;;;;;5040951;28;20234;-92
2023/08/15 08:15:13;;;;;;;11.40;11.00;;;27.80;99.90;;;;;;5042844;28;20273;-94
2023/08/15 08:21:15;;;;;;;11.20;10.90;;;28.20;99.90;;;;;;5025209;28;20314;-93
2023/08/15 08:24:14;;;;;;;11.00;10.70;;;28.30;99.90;;;;;;5027468;28;20279;-93
2023/08/15 08:26:54;;;;;;;10.85;10.55;;;28.40;99.90;;;;;;5027929;28;20226;-93
2023/08/15 11:11:31;;;;;;;10.90;10.60;;;36.10;99.90;;;;;;4953317;29;20230;-90
2023/08/15 11:14:02;;;;;;;11.10;10.80;;;36.20;99.90;;;;;;4945905;29;20242;-89
2023/08/15 11:26:53;;;;;;;10.98;10.68;;;33.80;99.90;;;;;;5115092;23;20276;-80
2023/08/15 11:29:20;;;;;;;10.90;10.60;;;33.40;99.90;;;;;;4974233;28;20240;-80
2023/08/15 11:31:48;;;;;;;10.90;10.60;;;33.20;99.90;;;;;;4976222;28;20226;-81
2023/08/15 11:34:16;;;;;;;11.30;11.00;;;33.00;99.90;;;;;;4980870;28;20479;-81
2023/08/15 11:36:45;;;;;;;10.63;10.32;;;32.90;99.90;;;;;;4969382;28;20297;-81
2023/08/15 11:39:13;;;;;;;10.60;10.30;;;32.80;99.90;;;;;;4963764;28;20261;-80
2023/08/15 11:41:40;;;;;;;10.48;10.18;;;32.80;99.90;;;;;;4964168;28;20249;-81
2023/08/15 11:44:09;;;;;;;10.80;10.50;;;32.90;99.90;;;;;;4963582;28;20250;-81
2023/08/15 11:46:37;;;;;;;11.00;10.70;;;33.00;99.90;;;;;;4963442;28;20294;-81
2023/08/15 11:49:05;;;;;;;10.90;10.60;;;33.20;99.90;;;;;;4964666;28;20254;-81
2023/08/15 11:51:32;;;;;;;10.68;10.38;;;33.30;99.90;;;;;;4965090;28;20237;-83
2023/08/15 11:54:01;;;;;;;11.20;10.90;;;33.70;99.90;;;;;;4967551;28;20230;-81
2023/08/15 11:56:47;;;;;;;11.13;10.82;;;34.10;99.90;;;;;;4961673;28;20233;-81
2023/08/15 11:59:19;;;;;;;10.85;10.55;;;34.30;99.90;;;;;;4963168;28;20233;-82
2023/08/15 12:01:50;;;;;;;11.20;10.90;;;34.20;99.90;;;;;;4964248;28;20230;-83
2023/08/15 12:04:18;;;;;;;10.90;10.60;;;34.10;99.90;;;;;;4963794;28;20234;-81
2023/08/15 12:06:45;;;;;;;11.10;10.80;;;34.20;99.90;;;;;;4963296;28;20225;-82
2023/08/15 12:09:13;;;;;;;11.10;10.80;;;34.30;99.90;;;;;;4964238;28;20270;-82
2023/08/15 12:11:40;;;;;;;10.77;10.48;;;34.50;99.90;;;;;;4966526;28;20297;-82
2023/08/15 12:14:20;;;;;;;11.02;10.73;;;34.80;99.90;;;;;;4963633;28;20245;-81
2023/08/15 12:16:48;;;;;;;10.93;10.63;;;34.90;99.90;;;;;;4964168;28;20238;-81
2023/08/15 12:19:15;;;;;;;11.20;10.90;;;34.50;99.90;;;;;;4964685;28;20240;-82
2023/08/15 12:21:42;;;;;;;11.30;11.00;;;34.20;99.90;;;;;;4964896;28;20242;-82
2023/08/15 12:24:09;;;;;;;11.10;10.80;;;34.20;99.90;;;;;;4974060;28;20234;-82
2023/08/15 12:26:37;;;;;;;10.98;10.68;;;34.10;99.90;;;;;;4983580;28;20225;-83
2023/08/15 12:29:04;;;;;;;11.18;10.88;;;33.90;99.90;;;;;;4982555;28;20750;-82
2023/08/15 12:31:34;;;;;;;11.02;10.73;;;33.60;99.90;;;;;;4982504;28;20289;-82
2023/08/15 12:34:01;;;;;;;11.20;10.90;;;33.40;99.90;;;;;;4982265;28;20221;-82
2023/08/15 12:36:28;;;;;;;11.30;11.00;;;33.50;99.90;;;;;;4982400;28;20237;-82
2023/08/15 12:38:55;;;;;;;11.05;10.75;;;33.90;99.90;;;;;;4983153;28;20293;-81
2023/08/15 12:41:22;;;;;;;11.10;10.80;;;34.40;99.90;;;;;;4982351;28;20241;-83
2023/08/15 12:43:51;;;;;;;11.10;10.80;;;34.70;99.90;;;;;;4982142;28;20229;-82
2023/08/15 12:46:18;;;;;;;11.15;10.85;;;34.70;99.90;;;;;;4981413;28;20241;-81
2023/08/15 12:48:47;;;;;;;10.93;10.63;;;34.50;99.90;;;;;;4981611;28;20233;-82
2023/08/15 12:51:15;;;;;;;10.80;10.50;;;34.70;99.90;;;;;;4982606;28;20320;-81
2023/08/15 12:53:42;;;;;;;11.10;10.80;;;34.80;99.90;;;;;;4991067;28;20229;-82
2023/08/15 12:56:09;;;;;;;11.05;10.75;;;34.70;99.90;;;;;;4984168;28;20232;-82
2023/08/15 12:58:36;;;;;;;10.90;10.60;;;34.60;99.90;;;;;;4983870;28;20236;-83
2023/08/15 13:01:03;;;;;;;10.88;10.57;;;34.50;99.90;;;;;;4983724;28;20229;-83
2023/08/15 13:03:31;;;;;;;10.82;10.52;;;34.60;99.90;;;;;;4978193;28;20317;-82
2023/08/15 13:05:59;;;;;;;11.10;10.80;;;34.90;99.90;;;;;;4963392;28;20249;-84
2023/08/15 13:08:26;;;;;;;10.95;10.65;;;35.20;99.90;;;;;;4966815;28;20300;-82
2023/08/15 13:10:54;;;;;;;10.85;10.55;;;35.50;99.90;;;;;;4977933;28;20261;-83
2023/08/15 13:13:21;;;;;;;11.05;10.75;;;35.60;99.90;;;;;;4973794;28;20285;-81
2023/08/15 13:15:48;;;;;;;11.10;10.80;;;35.50;99.90;;;;;;4967997;28;20325;-82
2023/08/15 13:18:15;;;;;;;11.13;10.82;;;35.80;99.90;;;;;;4962262;28;20234;-82
2023/08/15 13:20:43;;;;;;;11.23;10.93;;;35.90;99.90;;;;;;4962446;28;20234;-83
2023/08/15 13:23:11;;;;;;;10.90;10.60;;;35.80;99.90;;;;;;4963665;28;20301;-83
2023/08/15 13:25:38;;;;;;;10.82;10.52;;;35.90;99.90;;;;;;4973740;28;20301;-82
2023/08/15 13:28:06;;;;;;;10.93;10.63;;;36.30;99.90;;;;;;4981990;28;20265;-82
2023/08/15 13:30:33;;;;;;;10.77;10.48;;;36.60;99.90;;;;;;4982432;28;20309;-82
2023/08/15 13:33:00;;;;;;;10.90;10.60;;;36.50;99.90;;;;;;4981516;28;20261;-82
2023/08/15 13:35:28;;;;;;;10.25;9.95;;;36.60;99.90;;;;;;4981955;28;20349;-83
2023/08/15 13:37:55;;;;;;;10.50;10.20;;;36.70;99.90;;;;;;4981930;28;20238;-82
2023/08/15 13:40:23;;;;;;;10.57;10.27;;;36.40;99.90;;;;;;4962239;28;20326;-82
2023/08/15 13:42:51;;;;;;;10.60;10.30;;;35.70;99.90;;;;;;4962229;28;20321;-82
2023/08/15 13:45:18;;;;;;;10.63;10.32;;;35.20;99.90;;;;;;4962159;28;20321;-82
2023/08/15 13:47:45;;;;;;;10.82;10.52;;;34.80;99.90;;;;;;4962611;28;20238;-83
2023/08/15 13:50:12;;;;;;;10.88;10.57;;;34.70;99.90;;;;;;4963096;28;20238;-83
2023/08/15 13:52:39;;;;;;;10.93;10.63;;;35.00;99.90;;;;;;4962544;28;20238;-82
2023/08/15 13:55:08;;;;;;;10.52;10.23;;;35.40;99.90;;;;;;4969165;28;20266;-82
2023/08/15 13:57:37;;;;;;;10.40;10.10;;;35.40;99.90;;;;;;4959188;28;20318;-82
2023/08/15 14:00:06;;;;;;;10.40;10.10;;;35.20;99.90;;;;;;4963989;28;20281;-82
2023/08/15 14:02:33;;;;;;;10.20;9.90;;;34.40;99.90;;;;;;4965162;28;20257;-82
2023/08/15 14:05:00;;;;;;;9.90;9.60;;;34.20;99.90;;;;;;4964760;28;20238;-82
2023/08/15 14:07:27;;;;;;;10.15;9.85;;;34.30;99.90;;;;;;4964305;28;20238;-81
2023/08/15 14:09:54;;;;;;;10.20;9.90;;;33.70;99.90;;;;;;4969983;28;20261;-81
2023/08/15 14:12:22;;;;;;;10.48;10.18;;;33.40;99.90;;;;;;4971687;28;20233;-82
2023/08/15 14:14:50;;;;;;;10.25;9.95;;;33.20;99.90;;;;;;4975170;28;20235;-82
2023/08/15 14:17:17;;;;;;;10.40;10.10;;;32.40;99.90;;;;;;4982679;28;20328;-82
2023/08/15 14:19:44;;;;;;;10.20;9.90;;;31.80;99.90;;;;;;4965878;28;20284;-83
2023/08/15 14:22:12;;;;;;;10.43;10.13;;;31.50;99.90;;;;;;4964642;28;20244;-82
2023/08/15 14:24:45;;;;;;;10.43;10.13;;;31.30;99.90;;;;;;4964510;28;20246;-82
2023/08/15 14:27:12;;;;;;;10.50;10.20;;;31.10;99.90;;;;;;4964484;28;20242;-82
2023/08/15 14:29:39;;;;;;;10.30;10.00;;;30.80;99.90;;;;;;4964944;28;20230;-82
2023/08/15 14:32:08;;;;;;;10.30;10.00;;;30.70;99.90;;;;;;4964716;28;20317;-83
2023/08/15 14:34:35;;;;;;;10.30;10.00;;;30.50;99.90;;;;;;4966450;28;20282;-81
2023/08/15 14:37:02;;;;;;;10.10;9.80;;;30.70;99.90;;;;;;4969325;28;20244;-82
2023/08/15 14:39:29;;;;;;;10.40;10.10;;;30.80;99.90;;;;;;4969833;28;20226;-82
2023/08/15 14:41:56;;;;;;;10.07;9.77;;;31.00;99.90;;;;;;4966825;28;20226;-82
2023/08/15 14:44:23;;;;;;;10.15;9.85;;;31.10;99.90;;;;;;4965464;28;20334;-82
2023/08/15 14:46:51;;;;;;;10.38;10.07;;;31.20;99.90;;;;;;4965425;28;20248;-82
2023/08/15 14:49:19;;;;;;;9.73;9.43;;;31.20;99.90;;;;;;4956519;28;20231;-80
2023/08/15 14:51:46;;;;;;;10.00;9.70;;;31.20;99.90;;;;;;4945718;29;20235;-82
2023/08/15 14:54:13;;;;;;;9.88;9.57;;;31.20;99.90;;;;;;4944486;29;20319;-81
2023/08/15 14:56:40;;;;;;;10.05;9.75;;;31.40;99.90;;;;;;4952070;28;20241;-81
2023/08/15 14:59:09;;;;;;;10.00;9.70;;;31.60;99.90;;;;;;4943135;29;20294;-82
2023/08/15 15:01:42;;;;;;;10.00;9.70;;;31.70;99.90;;;;;;4942492;29;20246;-83
2023/08/15 15:04:09;;;;;;;10.32;10.02;;;31.80;99.90;;;;;;4942164;29;20255;-81
2023/08/15 15:06:41;;;;;;;10.15;9.85;;;31.70;99.90;;;;;;4942578;28;20341;-80
2023/08/15 15:09:10;;;;;;;10.27;9.98;;;31.70;99.90;;;;;;4942762;29;20329;-80
2023/08/15 15:11:37;;;;;;;10.40;10.10;;;31.70;99.90;;;;;;4943432;29;20230;-81
2023/08/15 15:14:05;;;;;;;10.23;9.93;;;31.80;99.90;;;;;;4954042;28;20230;-80
2023/08/15 15:16:32;;;;;;;10.20;9.90;;;31.80;99.90;;;;;;4962891;28;20294;-80
2023/08/15 15:18:59;;;;;;;10.07;9.77;;;31.70;99.90;;;;;;4962809;28;20234;-81
2023/08/15 15:21:26;;;;;;;10.35;10.05;;;31.70;99.90;;;;;;4963291;28;20239;-81
2023/08/15 15:23:54;;;;;;;9.90;9.60;;;31.80;99.90;;;;;;4964375;28;20321;-82
2023/08/15 15:26:21;;;;;;;10.27;9.98;;;31.80;99.90;;;;;;4963362;28;20254;-82
2023/08/15 15:28:49;;;;;;;10.25;9.95;;;31.80;99.90;;;;;;4972018;28;20261;-83
2023/08/15 15:31:16;;;;;;;10.18;9.88;;;31.80;99.90;;;;;;4963377;28;20222;-82
2023/08/15 15:33:43;;;;;;;10.60;10.30;;;31.90;99.90;;;;;;4963608;28;20234;-81
2023/08/15 15:36:10;;;;;;;10.50;10.20;;;32.30;99.90;;;;;;4964253;28;20238;-82
2023/08/15 15:38:38;;;;;;;10.60;10.30;;;32.80;99.90;;;;;;4963728;28;20238;-83
2023/08/15 15:41:06;;;;;;;10.27;9.98;;;33.20;99.90;;;;;;4970862;28;20238;-81